Time;durP1;ratioP1;P1;durP2;ratioP2;P2;SDS_P1;SDS_P2;PMS_P1;PMS_P2;Temp;Humidity;BMP_temperature;BMP_pressure;BME280_temperature;BME280_humidity;BME280_pressure;Samples;Min_cycle;Max_cycle;Signal;HPM_P1;HPM_P2
2021/12/01 00:02:18;;;;;;;0.50;0.50;;;6.10;76.50;5.20;97692.00;;;;5113867;28;20324;-70
2021/12/01 00:04:44;;;;;;;0.60;0.60;;;6.00;77.30;5.30;97686.00;;;;5114321;28;20225;-70
2021/12/01 00:07:12;;;;;;;0.80;0.80;;;6.00;77.50;5.10;97682.00;;;;5114414;28;20373;-69
2021/12/01 00:09:38;;;;;;;0.50;0.50;;;5.90;77.40;4.90;97680.00;;;;5096486;28;20190;-69
2021/12/01 00:12:06;;;;;;;1.90;1.33;;;5.80;78.60;5.00;97676.00;;;;5114461;28;20696;-69
2021/12/01 00:14:32;;;;;;;0.50;0.50;;;5.80;78.90;4.90;97680.00;;;;5114515;28;20297;-69
2021/12/01 00:16:59;;;;;;;0.60;0.60;;;5.70;78.90;4.70;97674.00;;;;5114292;28;20225;-69
2021/12/01 00:19:25;;;;;;;0.60;0.60;;;5.70;79.50;4.80;97677.00;;;;5114335;28;20237;-69
2021/12/01 00:21:52;;;;;;;0.60;0.60;;;5.60;80.10;4.70;97671.00;;;;5114250;28;20222;-69
2021/12/01 00:24:20;;;;;;;0.50;0.50;;;5.50;81.20;4.70;97675.00;;;;5114198;28;20228;-71
2021/12/01 00:26:47;;;;;;;0.60;0.60;;;5.50;81.60;4.90;97678.00;;;;5114225;28;20247;-70
2021/12/01 00:29:13;;;;;;;0.60;0.60;;;5.60;81.30;4.70;97674.00;;;;5114255;28;20202;-69
2021/12/01 00:31:41;;;;;;;0.60;0.60;;;5.60;81.20;4.70;97670.00;;;;5114222;28;20186;-69
2021/12/01 00:34:08;;;;;;;0.60;0.60;;;5.60;81.30;4.80;97659.00;;;;5096271;28;20264;-69
2021/12/01 00:36:35;;;;;;;0.50;0.50;;;5.50;81.60;4.80;97662.00;;;;5114228;28;20664;-69
2021/12/01 00:39:02;;;;;;;0.50;0.50;;;5.50;81.10;4.80;97656.00;;;;5096284;28;20296;-69
2021/12/01 00:41:31;;;;;;;0.60;0.60;;;5.60;80.40;4.70;97673.00;;;;5114046;28;20286;-69
2021/12/01 00:43:57;;;;;;;0.60;0.60;;;5.50;81.10;4.70;97664.00;;;;5114324;28;20190;-69
2021/12/01 00:46:34;;;;;;;0.60;0.60;;;5.40;81.50;4.70;97654.00;;;;5114034;28;20285;-69
2021/12/01 00:49:03;;;;;;;0.90;0.90;;;5.40;81.00;4.80;97633.00;;;;5114010;28;20209;-69
2021/12/01 00:51:32;;;;;;;0.60;0.60;;;5.60;80.60;4.70;97637.00;;;;5114020;28;20656;-69
2021/12/01 00:53:59;;;;;;;0.80;0.80;;;5.40;81.20;4.80;97630.00;;;;5113840;28;20289;-69
2021/12/01 00:56:26;;;;;;;0.50;0.50;;;5.50;81.20;4.90;97629.00;;;;5096060;28;20224;-69
2021/12/01 00:58:53;;;;;;;0.60;0.60;;;5.60;80.90;4.80;97636.00;;;;5113887;28;20308;-69
2021/12/01 01:01:22;;;;;;;1.20;1.10;;;5.60;81.10;4.80;97627.00;;;;5113615;28;20218;-69
2021/12/01 01:03:49;;;;;;;0.70;0.70;;;5.50;80.70;4.70;97621.00;;;;5095937;28;20217;-69
2021/12/01 01:06:18;;;;;;;0.60;0.60;;;5.50;80.60;4.60;97630.00;;;;5113895;28;20262;-69
2021/12/01 01:08:45;;;;;;;0.80;0.80;;;5.50;80.30;4.60;97635.00;;;;5113689;28;20300;-69
2021/12/01 01:16:49;;;;;;;0.60;0.60;;;5.40;80.40;4.60;97628.00;;;;5117169;28;20226;-69
2021/12/01 01:19:18;;;;;;;0.60;0.60;;;5.40;80.00;4.70;97622.00;;;;5099263;28;20208;-69
2021/12/01 01:21:49;;;;;;;0.70;0.70;;;5.50;79.70;4.80;97617.00;;;;5117062;28;20278;-69
2021/12/01 01:24:16;;;;;;;0.57;0.57;;;5.50;79.70;4.60;97617.00;;;;5117069;28;20229;-69
2021/12/01 01:26:44;;;;;;;0.60;0.60;;;5.40;79.80;4.60;97613.00;;;;5117104;28;20202;-69
2021/12/01 01:29:12;;;;;;;0.50;0.50;;;5.40;79.10;4.70;97609.00;;;;5116933;28;20682;-69
2021/12/01 01:31:39;;;;;;;0.60;0.60;;;5.50;79.20;4.80;97600.00;;;;5117196;28;20293;-69
2021/12/01 01:34:06;;;;;;;0.50;0.50;;;5.60;78.80;4.80;97576.00;;;;5099009;28;20640;-69
2021/12/01 01:36:32;;;;;;;0.50;0.50;;;5.60;78.40;4.70;97611.00;;;;5116869;28;20229;-69
2021/12/01 01:38:59;;;;;;;0.50;0.50;;;5.50;79.40;4.70;97620.00;;;;5099018;28;20205;-69
2021/12/01 01:41:26;;;;;;;0.53;0.53;;;5.40;78.60;4.50;97607.00;;;;5116868;28;20271;-69
2021/12/01 01:43:54;;;;;;;0.50;0.50;;;5.40;79.50;4.80;97603.00;;;;5098919;28;20218;-69
2021/12/01 01:46:21;;;;;;;0.60;0.60;;;5.50;79.40;4.80;97606.00;;;;5098966;28;20602;-71
2021/12/01 01:48:50;;;;;;;0.60;0.60;;;5.50;79.40;4.80;97588.00;;;;5116820;28;20201;-69
2021/12/01 01:51:22;;;;;;;0.50;0.50;;;5.50;79.00;4.70;97593.00;;;;5098644;28;20681;-69
2021/12/01 01:53:53;;;;;;;0.50;0.50;;;5.50;78.80;4.60;97583.00;;;;5116751;28;20285;-69
2021/12/01 01:56:20;;;;;;;0.70;0.70;;;5.40;79.10;4.70;97589.00;;;;5116861;28;20270;-70
2021/12/01 01:58:50;;;;;;;0.60;0.60;;;5.50;79.30;4.60;97592.00;;;;5116572;28;20351;-69
2021/12/01 02:01:34;;;;;;;0.87;0.87;;;5.40;79.50;4.70;97587.00;;;;5116566;28;20221;-69
2021/12/01 02:04:02;;;;;;;0.57;0.57;;;5.50;79.50;4.50;97577.00;;;;5116559;28;20236;-69
2021/12/01 02:06:28;;;;;;;0.60;0.60;;;5.30;79.20;4.50;97582.00;;;;5115432;28;20230;-69
2021/12/01 02:08:57;;;;;;;0.60;0.60;;;5.30;79.50;4.70;97587.00;;;;5116326;28;20488;-70
2021/12/01 02:11:26;;;;;;;0.50;0.50;;;5.50;79.10;4.60;97573.00;;;;5116339;28;20194;-69
2021/12/01 02:13:54;;;;;;;0.60;0.60;;;5.40;79.30;4.60;97568.00;;;;5098427;28;20631;-69
2021/12/01 02:16:22;;;;;;;0.60;0.60;;;5.40;79.00;4.60;97559.00;;;;5116279;28;20701;-69
2021/12/01 02:18:50;;;;;;;0.60;0.60;;;5.40;79.20;4.60;97554.00;;;;5098258;28;20577;-71
2021/12/01 02:21:26;;;;;;;0.60;0.60;;;5.40;79.10;4.80;97545.00;;;;5116225;28;20256;-71
2021/12/01 02:23:55;;;;;;;0.60;0.60;;;5.50;79.00;4.70;97547.00;;;;5116093;28;20197;-69
2021/12/01 02:26:22;;;;;;;0.50;0.50;;;5.50;78.50;4.80;97543.00;;;;5115262;28;20260;-69
2021/12/01 02:28:52;;;;;;;0.60;0.60;;;5.50;78.30;4.70;97546.00;;;;5116019;28;20225;-69
2021/12/01 02:31:20;;;;;;;0.60;0.60;;;5.50;78.20;4.80;97533.00;;;;5116033;28;20203;-69
2021/12/01 02:33:46;;;;;;;0.60;0.60;;;5.50;78.50;5.00;97537.00;;;;5115977;28;20292;-69
2021/12/01 02:36:15;;;;;;;0.90;0.90;;;5.60;78.70;4.80;97511.00;;;;5098082;28;20522;-69
2021/12/01 02:38:46;;;;;;;0.53;0.53;;;5.60;77.60;4.70;97519.00;;;;5115924;28;20280;-69
2021/12/01 02:41:13;;;;;;;0.50;0.50;;;5.50;78.10;4.70;97517.00;;;;5115684;28;20300;-69
2021/12/01 02:43:41;;;;;;;0.50;0.50;;;5.40;79.10;4.70;97522.00;;;;5115929;28;20254;-69
2021/12/01 02:46:08;;;;;;;0.50;0.50;;;5.50;78.20;4.70;97520.00;;;;5115960;28;20197;-69
2021/12/01 02:48:41;;;;;;;0.77;0.77;;;5.50;78.20;4.70;97515.00;;;;5115786;28;20223;-69
2021/12/01 02:51:09;;;;;;;0.60;0.60;;;5.50;78.40;4.60;97502.00;;;;5115813;28;20271;-69
2021/12/01 02:53:36;;;;;;;0.60;0.60;;;5.50;77.90;4.70;97494.00;;;;5097859;28;20504;-69
2021/12/01 02:56:05;;;;;;;0.70;0.70;;;5.50;78.30;4.70;97492.00;;;;5115511;28;20222;-69
2021/12/01 02:58:40;;;;;;;0.50;0.50;;;5.50;77.90;4.80;97489.00;;;;5115613;28;20194;-70
2021/12/01 03:01:15;;;;;;;0.70;0.70;;;5.50;77.70;4.80;97490.00;;;;5115525;28;20537;-69
2021/12/01 03:03:43;;;;;;;0.60;0.60;;;5.60;77.50;4.90;97489.00;;;;5115501;28;20365;-69
2021/12/01 03:06:11;;;;;;;0.50;0.50;;;5.60;77.50;4.90;97473.00;;;;5097604;28;20578;-69
2021/12/01 03:08:42;;;;;;;0.50;0.50;;;5.60;77.30;4.90;97433.00;;;;5115459;28;20224;-69
2021/12/01 03:11:10;;;;;;;0.70;0.70;;;5.60;77.40;4.90;97461.00;;;;5097463;28;20903;-69
2021/12/01 03:13:40;;;;;;;0.60;0.60;;;5.70;76.80;5.00;97466.00;;;;5115415;28;20609;-69
2021/12/01 03:16:07;;;;;;;0.77;0.77;;;5.70;76.50;5.00;97458.00;;;;5115254;28;20293;-71
2021/12/01 03:18:34;;;;;;;0.60;0.60;;;5.70;76.20;4.80;97450.00;;;;5115149;28;20225;-70
2021/12/01 03:21:04;;;;;;;0.50;0.50;;;5.60;76.70;5.00;97441.00;;;;5115268;28;20246;-69
2021/12/01 03:23:30;;;;;;;1.00;1.00;;;5.70;76.60;4.90;97439.00;;;;5097311;28;20198;-69
2021/12/01 03:25:57;;;;;;;0.70;0.70;;;5.60;76.70;4.90;97436.00;;;;5115202;28;20667;-69
2021/12/01 03:28:24;;;;;;;0.70;0.70;;;5.70;76.90;4.90;97423.00;;;;5115279;28;20194;-69
2021/12/01 03:30:51;;;;;;;0.60;0.60;;;5.70;77.20;5.10;97428.00;;;;5115218;28;20274;-69
2021/12/01 03:33:23;;;;;;;0.50;0.50;;;5.80;76.90;5.10;97427.00;;;;5115119;28;20197;-70
2021/12/01 03:35:53;;;;;;;0.50;0.50;;;5.80;77.00;4.90;97421.00;;;;5096242;28;20282;-69
2021/12/01 03:38:26;;;;;;;0.50;0.50;;;5.80;76.00;5.00;97425.00;;;;5097060;28;20198;-69
2021/12/01 03:40:54;;;;;;;0.60;0.60;;;5.80;76.70;4.90;97421.00;;;;5114990;28;20255;-69
2021/12/01 03:43:21;;;;;;;0.53;0.53;;;5.70;77.60;5.00;97426.00;;;;5114925;28;20202;-69
2021/12/01 03:45:48;;;;;;;0.60;0.60;;;5.80;76.70;5.00;97428.00;;;;5114801;28;20254;-69
2021/12/01 03:48:15;;;;;;;0.50;0.50;;;5.80;76.40;5.00;97397.00;;;;5114934;28;20281;-69
2021/12/01 03:50:48;;;;;;;0.87;0.87;;;5.80;76.00;5.20;97402.00;;;;5114902;28;20529;-69
2021/12/01 03:53:15;;;;;;;0.60;0.60;;;5.90;75.80;5.10;97413.00;;;;5096825;28;20229;-69
2021/12/01 03:55:42;;;;;;;0.50;0.50;;;5.90;75.80;5.20;97411.00;;;;5114755;28;20198;-69
2021/12/01 03:58:08;;;;;;;0.60;0.60;;;5.90;75.80;5.20;97407.00;;;;5114660;28;20205;-69
2021/12/01 04:00:35;;;;;;;0.60;0.60;;;5.90;75.50;5.20;97396.00;;;;5114607;28;20252;-69
2021/12/01 04:03:05;;;;;;;0.60;0.60;;;5.90;75.40;5.10;97392.00;;;;5096649;28;20222;-70
2021/12/01 04:05:35;;;;;;;1.00;1.00;;;5.90;75.50;5.10;97382.00;;;;5114595;28;20694;-69
2021/12/01 04:08:07;;;;;;;0.60;0.60;;;5.90;75.60;5.20;97374.00;;;;5114478;28;20226;-70
2021/12/01 04:10:34;;;;;;;1.60;1.37;;;5.90;75.40;5.30;97377.00;;;;5114870;28;20674;-69
2021/12/01 04:13:01;;;;;;;0.63;0.63;;;6.00;75.20;5.30;97355.00;;;;5114651;28;20194;-69
2021/12/01 04:15:28;;;;;;;0.60;0.60;;;6.00;74.80;5.40;97371.00;;;;5114521;28;20301;-71
2021/12/01 04:17:55;;;;;;;0.60;0.60;;;6.10;74.40;5.40;97354.00;;;;5114607;28;20600;-69
2021/12/01 04:20:24;;;;;;;0.50;0.50;;;6.10;74.30;5.30;97356.00;;;;5114350;28;20219;-69
2021/12/01 04:22:51;;;;;;;0.50;0.50;;;6.10;75.30;5.40;97358.00;;;;5114201;28;20290;-69
2021/12/01 04:25:18;;;;;;;0.60;0.60;;;6.10;74.60;5.30;97319.00;;;;5114304;28;20194;-70
2021/12/01 04:27:45;;;;;;;0.60;0.60;;;6.10;75.00;5.40;97344.00;;;;5114354;28;20535;-69
2021/12/01 04:30:18;;;;;;;0.60;0.60;;;6.10;76.10;5.40;97335.00;;;;5114337;28;20265;-69
2021/12/01 04:32:44;;;;;;;0.60;0.60;;;6.10;74.90;5.40;97346.00;;;;5114371;28;20297;-69
2021/12/01 04:35:13;;;;;;;0.70;0.70;;;6.10;73.90;5.40;97322.00;;;;5096282;28;20301;-69
2021/12/01 04:37:40;;;;;;;0.70;0.70;;;6.10;74.50;5.50;97321.00;;;;5114108;28;20221;-69
2021/12/01 04:40:08;;;;;;;0.60;0.60;;;6.20;74.10;5.60;97312.00;;;;5114072;28;20185;-69
2021/12/01 04:42:35;;;;;;;0.50;0.50;;;6.20;73.80;5.60;97318.00;;;;5113898;28;20243;-69
2021/12/01 04:45:06;;;;;;;0.60;0.60;;;6.30;73.20;5.60;97314.00;;;;5114100;28;20267;-69
2021/12/01 04:47:41;;;;;;;0.53;0.53;;;6.30;73.30;5.50;97295.00;;;;5115926;28;20198;-69
2021/12/01 04:50:09;;;;;;;0.60;0.60;;;6.30;73.10;5.60;97297.00;;;;5117688;28;20221;-69
2021/12/01 04:52:36;;;;;;;1.10;1.00;;;6.30;73.30;5.70;97284.00;;;;5117627;28;20280;-69
2021/12/01 04:55:04;;;;;;;0.50;0.50;;;6.40;73.10;5.70;97277.00;;;;5117662;28;20277;-69
2021/12/01 04:57:31;;;;;;;0.50;0.50;;;6.40;72.90;5.70;97268.00;;;;5117338;28;20232;-69
2021/12/01 04:59:58;;;;;;;0.60;0.60;;;6.50;72.70;5.60;97267.00;;;;5117541;28;20625;-69
2021/12/01 05:02:24;;;;;;;0.60;0.60;;;6.40;72.80;5.60;97261.00;;;;5117311;28;20325;-69
2021/12/01 05:04:53;;;;;;;0.50;0.50;;;6.40;73.20;5.60;97264.00;;;;5117332;28;20586;-69
2021/12/01 05:07:20;;;;;;;1.00;1.00;;;6.40;73.40;5.80;97264.00;;;;5117335;28;20216;-69
2021/12/01 05:09:48;;;;;;;0.50;0.50;;;6.50;73.10;5.80;97253.00;;;;5117329;28;20353;-69
2021/12/01 05:12:15;;;;;;;0.63;0.63;;;6.50;73.20;5.60;97258.00;;;;5099148;28;20319;-69
2021/12/01 05:14:42;;;;;;;0.50;0.50;;;6.40;73.10;5.70;97263.00;;;;5117268;28;20200;-69
2021/12/01 05:17:08;;;;;;;0.50;0.50;;;6.40;72.80;5.80;97258.00;;;;5117291;28;20285;-69
2021/12/01 05:19:37;;;;;;;0.50;0.50;;;6.50;73.70;5.70;97245.00;;;;5117102;28;20217;-69
2021/12/01 05:22:05;;;;;;;0.60;0.60;;;6.50;72.80;5.80;97252.00;;;;5117059;28;20246;-69
2021/12/01 05:24:32;;;;;;;0.60;0.60;;;6.50;73.00;5.80;97253.00;;;;5117062;28;20190;-69
2021/12/01 05:26:59;;;;;;;0.50;0.50;;;6.50;72.90;5.60;97234.00;;;;5116869;28;20301;-70
2021/12/01 05:29:27;;;;;;;1.00;1.00;;;6.40;73.20;5.60;97234.00;;;;5116994;28;20229;-69
2021/12/01 05:31:56;;;;;;;0.50;0.50;;;6.40;73.60;5.60;97231.00;;;;5116883;28;20190;-69
2021/12/01 05:34:24;;;;;;;0.60;0.60;;;6.40;73.70;5.70;97223.00;;;;5116907;28;20302;-69
2021/12/01 05:36:51;;;;;;;0.60;0.60;;;6.40;74.20;5.70;97202.00;;;;5116975;28;20195;-69
2021/12/01 05:39:18;;;;;;;0.70;0.70;;;6.40;74.20;5.60;97215.00;;;;5116952;28;20713;-69
2021/12/01 05:41:45;;;;;;;0.70;0.70;;;6.40;74.10;5.70;97215.00;;;;5116916;28;20217;-69
2021/12/01 05:44:14;;;;;;;2.03;0.80;;;6.40;73.90;5.80;97215.00;;;;5116723;28;20339;-69
2021/12/01 05:46:41;;;;;;;1.07;1.00;;;6.50;73.60;5.60;97212.00;;;;5116647;28;20646;-69
2021/12/01 05:49:08;;;;;;;0.80;0.80;;;6.40;73.50;5.70;97206.00;;;;5098795;28;20213;-69
2021/12/01 05:51:34;;;;;;;0.60;0.60;;;6.40;73.90;5.70;97204.00;;;;5116613;28;20205;-69
2021/12/01 05:54:03;;;;;;;0.50;0.50;;;6.40;74.00;5.80;97198.00;;;;5116616;28;20272;-69
2021/12/01 05:56:32;;;;;;;0.53;0.53;;;6.50;73.50;5.80;97185.00;;;;5116660;28;20202;-71
2021/12/01 05:58:58;;;;;;;0.60;0.60;;;6.50;73.10;5.90;97194.00;;;;5116000;28;20383;-69
2021/12/01 06:01:25;;;;;;;0.60;0.60;;;6.50;73.10;5.80;97187.00;;;;5116399;28;20224;-69
2021/12/01 06:03:53;;;;;;;0.60;0.60;;;6.50;73.20;5.80;97183.00;;;;5116429;28;20290;-69
2021/12/01 06:06:20;;;;;;;0.60;0.60;;;6.50;73.10;5.80;97185.00;;;;5116549;28;20281;-69
2021/12/01 06:08:46;;;;;;;0.60;0.60;;;6.60;72.90;5.90;97168.00;;;;5116236;28;20201;-69
2021/12/01 06:11:14;;;;;;;0.50;0.50;;;6.60;72.60;6.00;97167.00;;;;5116250;28;20218;-71
2021/12/01 06:13:42;;;;;;;0.50;0.50;;;6.70;72.30;6.00;97164.00;;;;5116455;28;20210;-69
2021/12/01 06:16:09;;;;;;;0.50;0.50;;;6.70;71.80;6.20;97163.00;;;;5116309;28;20308;-69
2021/12/01 06:18:36;;;;;;;0.50;0.50;;;6.80;71.70;6.10;97159.00;;;;5116172;28;20297;-70
2021/12/01 06:21:03;;;;;;;0.60;0.60;;;6.80;71.40;6.00;97150.00;;;;5116123;28;20194;-70
2021/12/01 06:23:30;;;;;;;0.50;0.50;;;6.70;72.00;5.90;97153.00;;;;5116211;28;20214;-70
2021/12/01 06:25:59;;;;;;;0.50;0.50;;;6.60;73.40;5.90;97147.00;;;;5116363;28;20677;-70
2021/12/01 06:28:25;;;;;;;0.60;0.60;;;6.60;72.60;5.90;97144.00;;;;5116182;28;20190;-69
2021/12/01 06:30:52;;;;;;;0.60;0.60;;;6.70;72.40;5.80;97140.00;;;;5081070;28;20657;-69
2021/12/01 06:33:18;;;;;;;0.60;0.60;;;6.50;72.90;5.90;97142.00;;;;5115973;28;20217;-69
2021/12/01 06:35:49;;;;;;;0.50;0.50;;;6.60;72.80;6.00;97134.00;;;;5116074;28;20201;-69
2021/12/01 06:38:20;;;;;;;1.03;0.93;;;6.70;72.60;6.00;97139.00;;;;5115836;28;20232;-69
2021/12/01 06:40:48;;;;;;;0.60;0.60;;;6.70;72.40;6.00;97129.00;;;;5116083;28;20198;-69
2021/12/01 06:43:15;;;;;;;0.60;0.60;;;6.70;73.30;6.10;97135.00;;;;5115753;28;20217;-69
2021/12/01 06:45:42;;;;;;;0.60;0.60;;;6.70;72.10;6.00;97126.00;;;;5097844;28;20313;-69
2021/12/01 06:48:11;;;;;;;0.70;0.70;;;6.70;72.60;6.00;97114.00;;;;5098008;28;20201;-69
2021/12/01 06:50:38;;;;;;;0.57;0.57;;;6.70;72.00;5.90;97107.00;;;;5115710;28;20354;-69
2021/12/01 06:53:07;;;;;;;0.60;0.60;;;6.70;72.20;6.10;97098.00;;;;5115601;28;20279;-69
2021/12/01 06:55:34;;;;;;;0.53;0.53;;;6.80;72.50;6.20;97093.00;;;;5097711;28;20293;-69
2021/12/01 06:58:01;;;;;;;0.50;0.50;;;6.80;72.60;6.00;97090.00;;;;5115586;28;20697;-71
2021/12/01 07:00:27;;;;;;;0.60;0.60;;;6.80;71.70;6.00;97094.00;;;;5097826;28;20296;-71
2021/12/01 07:02:54;;;;;;;0.50;0.50;;;6.80;71.90;6.20;97088.00;;;;5115601;28;20224;-70
2021/12/01 07:05:20;;;;;;;0.60;0.60;;;6.80;72.20;6.10;97083.00;;;;5115589;28;20193;-69
2021/12/01 07:07:47;;;;;;;0.60;0.60;;;6.80;71.60;6.20;97082.00;;;;5115511;28;20366;-69
2021/12/01 07:10:15;;;;;;;0.60;0.60;;;6.80;71.60;6.20;97072.00;;;;5096711;28;20213;-71
2021/12/01 07:12:44;;;;;;;0.70;0.70;;;6.80;71.60;6.20;97067.00;;;;5115072;28;20213;-69
2021/12/01 07:15:13;;;;;;;0.60;0.60;;;6.90;72.20;6.30;97064.00;;;;5097577;28;20213;-69
2021/12/01 07:17:41;;;;;;;0.60;0.60;;;7.00;72.30;6.30;97055.00;;;;5115223;28;20275;-70
2021/12/01 07:20:10;;;;;;;0.50;0.50;;;7.00;72.40;6.50;97053.00;;;;5115235;28;20281;-70
2021/12/01 07:22:37;;;;;;;0.60;0.60;;;7.20;71.20;6.50;97053.00;;;;5114836;28;20250;-69
2021/12/01 07:25:05;;;;;;;0.70;0.70;;;7.20;71.40;6.50;97050.00;;;;5097406;28;20308;-69
2021/12/01 07:27:32;;;;;;;0.50;0.50;;;7.20;71.40;6.40;97044.00;;;;5115182;28;20220;-69
2021/12/01 07:29:59;;;;;;;0.60;0.60;;;7.20;71.60;6.70;97037.00;;;;5097242;28;20288;-71
2021/12/01 07:32:26;;;;;;;0.60;0.60;;;7.30;69.90;6.60;97034.00;;;;5114920;28;20659;-75
2021/12/01 07:34:53;;;;;;;0.50;0.50;;;7.30;69.80;6.50;97012.00;;;;5114672;28;20198;-73
2021/12/01 07:37:20;;;;;;;0.60;0.60;;;7.20;69.60;6.50;97016.00;;;;5114908;28;20237;-73
2021/12/01 07:39:47;;;;;;;0.50;0.50;;;7.20;69.80;6.50;97004.00;;;;5097249;28;20231;-73
2021/12/01 07:42:15;;;;;;;0.97;0.87;;;7.20;69.60;6.70;96948.00;;;;5096984;28;20251;-74
2021/12/01 07:44:45;;;;;;;0.50;0.50;;;7.40;68.90;6.60;97004.00;;;;5114929;28;20299;-74
2021/12/01 07:47:12;;;;;;;0.77;0.77;;;7.30;69.10;6.70;96991.00;;;;5114909;28;20207;-73
2021/12/01 07:49:39;;;;;;;0.43;0.43;;;7.30;69.60;6.60;96983.00;;;;5114757;28;20210;-75
2021/12/01 07:52:07;;;;;;;0.40;0.40;;;7.40;68.90;6.70;96981.00;;;;5114850;28;20189;-73
2021/12/01 07:54:33;;;;;;;0.57;0.57;;;7.30;69.50;6.80;96962.00;;;;5114677;28;20196;-73
2021/12/01 07:57:01;;;;;;;0.60;0.60;;;7.40;68.90;6.80;96959.00;;;;5114633;28;20313;-72
2021/12/01 07:59:28;;;;;;;0.50;0.50;;;7.40;68.90;6.80;96959.00;;;;5114621;28;20266;-70
2021/12/01 08:01:55;;;;;;;0.60;0.60;;;7.50;69.10;6.70;96950.00;;;;5114430;28;20254;-71
2021/12/01 08:04:22;;;;;;;0.50;0.50;;;7.50;68.60;6.60;96948.00;;;;5114638;28;20206;-72
2021/12/01 08:06:49;;;;;;;0.60;0.60;;;7.40;68.70;6.70;96943.00;;;;5114373;28;20223;-72
2021/12/01 08:09:15;;;;;;;0.67;0.67;;;7.40;69.20;6.90;96943.00;;;;5114683;28;20582;-72
2021/12/01 08:11:42;;;;;;;0.60;0.60;;;7.50;68.70;6.80;96928.00;;;;5114644;28;20222;-73
2021/12/01 08:14:08;;;;;;;0.47;0.47;;;7.50;68.50;6.90;96937.00;;;;5114427;28;20281;-73
2021/12/01 08:16:37;;;;;;;0.57;0.57;;;7.60;68.00;7.00;96922.00;;;;5114435;28;20201;-72
2021/12/01 08:19:05;;;;;;;0.60;0.60;;;7.60;68.50;6.90;96918.00;;;;5114336;28;20304;-73
2021/12/01 08:21:33;;;;;;;0.50;0.50;;;7.60;67.80;6.90;96915.00;;;;5096473;28;20224;-73
2021/12/01 08:24:00;;;;;;;0.60;0.60;;;7.60;67.90;6.90;96917.00;;;;5117917;28;20294;-72
2021/12/01 08:26:27;;;;;;;0.40;0.40;;;7.60;68.10;6.90;96915.00;;;;5100087;28;20627;-73
2021/12/01 08:28:54;;;;;;;0.90;0.90;;;7.70;68.70;7.10;96908.00;;;;5118006;28;20317;-72
2021/12/01 08:31:21;;;;;;;0.60;0.60;;;7.70;68.40;7.20;96912.00;;;;5118016;28;20196;-73
2021/12/01 08:33:48;;;;;;;0.60;0.60;;;7.90;68.10;7.20;96911.00;;;;5117880;28;20283;-72
2021/12/01 08:36:18;;;;;;;0.60;0.60;;;7.90;67.60;7.30;96899.00;;;;5118532;28;20300;-72
2021/12/01 08:38:47;;;;;;;0.60;0.60;;;8.00;67.40;7.40;96902.00;;;;5117873;28;20251;-72
2021/12/01 08:41:16;;;;;;;0.50;0.50;;;8.10;67.80;7.60;96888.00;;;;5117919;28;20208;-72
2021/12/01 08:43:43;;;;;;;0.57;0.57;;;8.20;67.60;7.50;96890.00;;;;5117728;28;20186;-71
2021/12/01 08:46:10;;;;;;;0.50;0.50;;;8.30;67.10;7.70;96880.00;;;;5117763;28;20233;-72
2021/12/01 08:48:38;;;;;;;0.50;0.50;;;8.30;66.20;7.70;96883.00;;;;5117673;28;20199;-73
2021/12/01 08:51:07;;;;;;;0.70;0.70;;;8.30;67.30;7.70;96881.00;;;;5117599;28;20303;-74
2021/12/01 08:53:36;;;;;;;0.60;0.60;;;8.40;66.80;7.90;96868.00;;;;5117623;28;20196;-74
2021/12/01 08:56:05;;;;;;;0.60;0.60;;;8.50;66.10;8.10;96865.00;;;;5117366;28;20264;-72
2021/12/01 08:58:33;;;;;;;0.50;0.50;;;8.70;67.00;8.20;96860.00;;;;5117531;28;20590;-74
2021/12/01 09:01:01;;;;;;;0.60;0.60;;;8.90;65.60;8.30;96853.00;;;;5117362;28;20460;-76
2021/12/01 09:03:28;;;;;;;0.60;0.60;;;8.90;65.50;8.40;96848.00;;;;5117452;28;20214;-73
2021/12/01 09:05:58;;;;;;;0.83;0.83;;;9.00;65.40;8.30;96879.00;;;;5117423;28;20199;-73
2021/12/01 09:08:26;;;;;;;0.50;0.50;;;9.00;64.50;8.10;96870.00;;;;5117203;28;20255;-72
2021/12/01 09:10:56;;;;;;;0.70;0.70;;;8.90;65.40;8.40;96864.00;;;;5117096;28;20217;-73
2021/12/01 09:13:27;;;;;;;0.50;0.50;;;8.90;64.90;8.30;96839.00;;;;5117377;28;20299;-72
2021/12/01 09:15:56;;;;;;;0.60;0.60;;;9.00;65.20;8.40;96845.00;;;;5099277;28;20206;-73
2021/12/01 09:18:25;;;;;;;0.50;0.50;;;9.10;65.40;8.50;96851.00;;;;5117223;28;20659;-74
2021/12/01 09:20:54;;;;;;;0.50;0.50;;;9.10;65.50;8.50;96839.00;;;;5117214;28;20622;-75
2021/12/01 09:23:21;;;;;;;0.50;0.50;;;9.10;65.50;8.40;96848.00;;;;5116825;28;20244;-72
2021/12/01 09:25:48;;;;;;;0.53;0.53;;;9.10;64.90;8.40;96836.00;;;;5117171;28;20209;-72
2021/12/01 09:28:18;;;;;;;0.50;0.50;;;9.10;64.90;8.20;96848.00;;;;5099046;28;20229;-72
2021/12/01 09:30:46;;;;;;;3.00;1.00;;;9.00;64.70;8.20;96831.00;;;;5116984;28;20662;-72
2021/12/01 09:33:16;;;;;;;0.50;0.50;;;8.90;64.90;8.30;96818.00;;;;5098198;28;20266;-72
2021/12/01 09:35:44;;;;;;;0.60;0.60;;;9.00;65.10;8.20;96822.00;;;;5116792;28;20872;-74
2021/12/01 09:38:13;;;;;;;0.50;0.50;;;8.90;65.10;8.30;96807.00;;;;5116909;28;20611;-74
2021/12/01 09:40:42;;;;;;;0.50;0.50;;;9.00;64.80;8.30;96820.00;;;;5099065;28;20520;-73
2021/12/01 09:43:09;;;;;;;0.50;0.50;;;9.10;64.70;8.30;96802.00;;;;5116749;28;20249;-74
2021/12/01 09:45:35;;;;;;;0.60;0.60;;;9.00;65.70;8.30;96814.00;;;;5099038;28;20572;-73
2021/12/01 09:48:03;;;;;;;0.60;0.60;;;8.90;65.10;8.20;96836.00;;;;5116798;28;20273;-73
2021/12/01 09:50:29;;;;;;;0.50;0.50;;;8.90;65.10;8.30;96793.00;;;;5116588;28;20233;-75
2021/12/01 09:52:56;;;;;;;0.50;0.50;;;9.00;65.20;8.30;96782.00;;;;5116711;28;20290;-73
2021/12/01 09:55:22;;;;;;;0.50;0.50;;;9.00;65.00;8.40;96779.00;;;;5098618;28;20678;-74
2021/12/01 09:57:58;;;;;;;0.60;0.60;;;9.00;64.60;8.50;96769.00;;;;5116658;28;20211;-75
2021/12/01 10:00:28;;;;;;;0.60;0.60;;;9.10;64.50;8.50;96766.00;;;;5116507;28;20664;-72
2021/12/01 10:02:55;;;;;;;0.60;0.60;;;9.20;64.60;8.50;96773.00;;;;5098651;28;20268;-75
2021/12/01 10:06:03;;;;;;;0.50;0.50;;;9.20;63.60;8.60;96769.00;;;;5116375;28;20326;-73
2021/12/01 10:08:36;;;;;;;0.60;0.60;;;9.20;64.50;8.50;96763.00;;;;5017642;28;20230;-73
2021/12/01 10:11:08;;;;;;;0.50;0.50;;;9.20;63.80;8.60;96774.00;;;;5107030;28;20262;-72
2021/12/01 10:13:39;;;;;;;0.50;0.50;;;9.30;63.30;8.50;96761.00;;;;5116526;28;20228;-72
2021/12/01 10:16:09;;;;;;;0.60;0.60;;;9.20;63.40;8.60;96757.00;;;;5116476;28;20509;-73
2021/12/01 10:18:40;;;;;;;0.50;0.50;;;9.30;63.30;8.70;96745.00;;;;5116281;28;20331;-74
2021/12/01 10:21:14;;;;;;;0.50;0.50;;;9.40;63.10;8.70;96734.00;;;;5116331;28;20221;-72
2021/12/01 10:23:47;;;;;;;0.50;0.50;;;9.30;63.60;8.90;96731.00;;;;5116094;28;20249;-73
2021/12/01 10:26:19;;;;;;;0.50;0.50;;;9.50;63.20;8.80;96728.00;;;;5098357;28;20202;-71
2021/12/01 10:28:48;;;;;;;0.50;0.50;;;9.50;62.90;8.80;96726.00;;;;5116142;28;20213;-70
2021/12/01 10:31:34;;;;;;;1.23;1.23;;;9.50;63.00;8.90;96711.00;;;;5116010;28;20240;-73
2021/12/01 10:34:15;;;;;;;0.50;0.50;;;9.50;63.10;8.80;96718.00;;;;5116079;28;20213;-72
2021/12/01 10:36:44;;;;;;;0.50;0.50;;;9.50;62.60;8.70;96709.00;;;;5115754;28;20308;-72
2021/12/01 10:39:10;;;;;;;0.50;0.50;;;9.40;63.70;9.00;96714.00;;;;5115853;28;20221;-72
2021/12/01 10:41:40;;;;;;;0.60;0.60;;;9.60;63.20;8.80;96695.00;;;;5116023;28;20634;-72
2021/12/01 10:44:12;;;;;;;0.60;0.60;;;9.50;63.10;8.80;96696.00;;;;5115939;28;20229;-72
2021/12/01 10:46:47;;;;;;;0.50;0.50;;;9.50;63.80;9.10;96683.00;;;;5098129;28;20301;-73
2021/12/01 10:49:14;;;;;;;0.70;0.70;;;9.60;63.20;9.10;96672.00;;;;5115753;28;20225;-70
2021/12/01 10:51:45;;;;;;;0.50;0.50;;;9.80;62.90;9.10;96631.00;;;;5115722;28;20209;-71
2021/12/01 10:54:18;;;;;;;0.60;0.60;;;9.70;62.70;9.00;96675.00;;;;5116056;28;20213;-71
2021/12/01 10:57:17;;;;;;;0.50;0.50;;;9.70;63.10;9.10;96658.00;;;;5115636;28;20213;-71
2021/12/01 10:59:45;;;;;;;0.60;0.60;;;9.70;63.30;8.90;96662.00;;;;5115612;28;20214;-70
2021/12/01 11:02:12;;;;;;;0.70;0.70;;;9.60;63.50;8.80;96644.00;;;;5115311;28;20657;-71
2021/12/01 11:04:44;;;;;;;0.50;0.50;;;9.50;64.50;8.90;96643.00;;;;5115754;28;20338;-71
2021/12/01 11:07:26;;;;;;;0.60;0.60;;;9.50;65.50;9.00;96635.00;;;;5097550;28;20204;-72
2021/12/01 11:10:12;;;;;;;0.50;0.50;;;9.60;64.70;9.00;96620.00;;;;5115407;28;20274;-72
2021/12/01 11:12:40;;;;;;;0.50;0.50;;;9.60;65.50;8.90;96606.00;;;;5115517;28;20739;-73
2021/12/01 11:15:26;;;;;;;0.50;0.50;;;9.60;66.20;8.80;96604.00;;;;5115367;28;20221;-73
2021/12/01 11:17:54;;;;;;;0.50;0.50;;;9.60;66.60;8.80;96586.00;;;;5115372;28;20224;-73
2021/12/01 11:20:43;;;;;;;0.50;0.50;;;9.50;67.30;9.10;96596.00;;;;5115141;28;20247;-72
2021/12/01 11:23:18;;;;;;;0.50;0.50;;;9.70;67.50;8.80;96601.00;;;;5109609;28;20305;-71